This is the latest recevied weather packets stored in our database for station/object K7GFH-13. If no packets are shown the sender has not sent any weather packets the latest 10 day(s).
| Time | Temp. | Humidity | Pressure | Rain* | Wind** | Luminosity | Snow |
|---|---|---|---|---|---|---|---|
| 1777939214 | 22.22° C | 58% | 1013.1 hPa | 0 mm | - | 397 W/m² | - |
| 1777938310 | 22.22° C | 56% | 1013.1 hPa | 0 mm | - | 438 W/m² | - |
| 1777937405 | 21.67° C | 59% | 1013.2 hPa | 0 mm | - | 476 W/m² | - |
| 1777936502 | 22.22° C | 56% | 1013.4 hPa | 0 mm | - | 515 W/m² | - |
| 1777935600 | 22.78° C | 54% | 1013.6 hPa | 0 mm | - | 544 W/m² | - |
| 1777934696 | 21.67° C | 59% | 1013.4 hPa | 0 mm | - | 575 W/m² | - |
| 1777933791 | 21.67° C | 59% | 1013.6 hPa | 0 mm | - | 605 W/m² | - |
| 1777932889 | 21.11° C | 60% | 1013.8 hPa | 0 mm | - | 629 W/m² | - |
| 1777931985 | 20.56° C | 63% | 1014 hPa | 0 mm | - | 647 W/m² | - |
| 1777931080 | 20° C | 63% | 1014.3 hPa | 0 mm | - | 672 W/m² | - |
| 1777930177 | 19.44° C | 65% | 1014.4 hPa | 0 mm | - | 687 W/m² | - |
| 1777929272 | 18.89° C | 67% | 1014.5 hPa | 0 mm | - | 701 W/m² | - |
| 1777928369 | 18.33° C | 67% | 1014.9 hPa | 0 mm | - | 706 W/m² | - |
| 1777927469 | 17.78° C | 70% | 1014.9 hPa | 0 mm | - | 705 W/m² | - |
| 1777926567 | 17.78° C | 70% | 1015.2 hPa | 0 mm | - | 738 W/m² | - |
| 1777925663 | 17.22° C | 73% | 1015.3 hPa | 0 mm | - | 776 W/m² | - |
| 1777924760 | 16.67° C | 73% | 1015.2 hPa | 0 mm | - | 722 W/m² | - |
| 1777923860 | 17.22° C | 73% | 1015.3 hPa | 0 mm | - | 658 W/m² | - |
| 1777922958 | 16.11° C | 74% | 1015.5 hPa | 0 mm | - | 403 W/m² | - |
| 1777922057 | 16.11° C | 75% | 1015.5 hPa | 0 mm | - | 373 W/m² | - |
| 1777921157 | 15° C | 78% | 1015.6 hPa | 0 mm | - | 576 W/m² | - |
| 1777920257 | 15° C | 81% | 1015.8 hPa | 0 mm | - | 351 W/m² | - |
| 1777919354 | 15.56° C | 77% | 1015.6 hPa | 0 mm | - | 277 W/m² | - |
| 1777918451 | 14.44° C | 81% | 1015.7 hPa | 0 mm | - | 340 W/m² | - |
| 1777917546 | 14.44° C | 79% | 1015.6 hPa | 0 mm | - | 301 W/m² | - |
* Rain latest hour (hover to see other rain measurements)
** Current wind speed in m/s (hover to see current wind gust speed)